Time;durP1;ratioP1;P1;durP2;ratioP2;P2;SDS_P1;SDS_P2;PMS_P1;PMS_P2;Temp;Humidity;BMP_temperature;BMP_pressure;BME280_temperature;BME280_humidity;BME280_pressure;Samples;Min_cycle;Max_cycle;Signal;HPM_P1;HPM_P2
2023/03/21 00:01:11;;;;;;;48.28;34.08;;;9.40;99.90;;;;;;5058053;28;20338;-35
2023/03/21 00:03:37;;;;;;;48.28;33.42;;;9.40;99.90;;;;;;5083527;28;20036;-34
2023/03/21 00:06:10;;;;;;;51.90;33.90;;;9.40;99.90;;;;;;5065388;28;20040;-34
2023/03/21 00:08:36;;;;;;;;;;;9.40;99.90;;;;;;5076473;28;20151;-34
2023/03/21 00:11:05;;;;;;;48.78;32.22;;;9.50;99.90;;;;;;5067050;28;19924;-35
2023/03/21 00:13:32;;;;;;;56.88;34.97;;;9.40;99.90;;;;;;5063673;28;20044;-34
2023/03/21 00:16:04;;;;;;;52.75;33.75;;;9.50;99.90;;;;;;5069585;28;20044;-34
2023/03/21 00:18:30;;;;;;;56.97;33.63;;;9.50;99.90;;;;;;5068567;28;20597;-34
2023/03/21 00:21:00;;;;;;;51.33;32.10;;;9.50;99.90;;;;;;5065496;28;20119;-34
2023/03/21 00:23:27;;;;;;;54.38;33.85;;;9.50;99.90;;;;;;5064014;28;20037;-34
2023/03/21 00:25:53;;;;;;;52.25;32.55;;;9.50;99.90;;;;;;5082318;28;20032;-34
2023/03/21 00:28:20;;;;;;;47.00;31.38;;;9.40;99.90;;;;;;5071100;28;20371;-34
2023/03/21 00:30:46;;;;;;;49.08;32.25;;;9.50;99.90;;;;;;5078496;28;20470;-34
2023/03/21 00:33:12;;;;;;;51.00;32.20;;;9.50;99.90;;;;;;5062544;28;20060;-34
2023/03/21 00:35:42;;;;;;;43.40;30.30;;;9.50;99.90;;;;;;5067348;28;20083;-34
2023/03/21 00:38:08;;;;;;;53.08;32.92;;;9.60;99.90;;;;;;5081602;28;20050;-34
2023/03/21 00:40:34;;;;;;;58.65;34.05;;;9.60;99.90;;;;;;5063909;28;20259;-35
2023/03/21 00:43:03;;;;;;;46.95;31.13;;;9.60;99.90;;;;;;5075726;28;20603;-34
2023/03/21 00:45:28;;;;;;;49.42;30.23;;;9.60;99.90;;;;;;5080814;28;20041;-34
2023/03/21 00:47:54;;;;;;;46.05;28.90;;;9.60;99.90;;;;;;5067275;28;20041;-34
2023/03/21 00:50:21;;;;;;;55.20;31.65;;;9.60;99.90;;;;;;5072104;28;20040;-34
2023/03/21 00:52:47;;;;;;;47.13;30.02;;;9.60;99.90;;;;;;5066904;28;20037;-34
2023/03/21 00:55:15;;;;;;;47.47;30.00;;;9.60;99.90;;;;;;5053981;28;20425;-35
2023/03/21 00:57:41;;;;;;;46.33;29.35;;;9.60;99.90;;;;;;5077242;28;20040;-34
2023/03/21 01:00:13;;;;;;;44.80;28.27;;;9.60;99.90;;;;;;5078746;28;20043;-35
2023/03/21 01:02:55;;;;;;;46.22;29.23;;;9.60;99.90;;;;;;5072794;28;20040;-36
2023/03/21 01:06:01;;;;;;;45.88;27.35;;;9.60;99.90;;;;;;5060462;28;20040;-35
2023/03/21 01:08:11;;;;;;;43.20;27.08;;;9.60;99.90;;;;;;5062472;28;20044;-34
2023/03/21 01:10:45;;;;;;;50.10;29.08;;;9.60;99.90;;;;;;5087545;28;20117;-35
2023/03/21 01:13:12;;;;;;;42.33;25.75;;;9.70;99.90;;;;;;5060499;28;20285;-34
2023/03/21 01:15:44;;;;;;;46.28;26.38;;;9.70;99.90;;;;;;5070553;28;20035;-34
2023/03/21 01:18:11;;;;;;;48.70;28.55;;;9.70;99.90;;;;;;5070078;28;20037;-34
2023/03/21 01:20:36;;;;;;;44.00;26.63;;;9.60;99.90;;;;;;5079958;28;20120;-34
2023/03/21 01:23:02;;;;;;;45.60;27.55;;;9.70;99.90;;;;;;5073367;28;20115;-34
2023/03/21 01:25:28;;;;;;;41.70;26.08;;;9.70;99.90;;;;;;5072511;28;20060;-34
2023/03/21 01:27:53;;;;;;;44.85;26.45;;;9.70;99.90;;;;;;5078388;28;20078;-35
2023/03/21 01:30:19;;;;;;;45.15;27.50;;;9.60;99.90;;;;;;5064432;28;20048;-34
2023/03/21 01:32:45;;;;;;;37.08;23.92;;;9.70;99.90;;;;;;5070276;28;20033;-34
2023/03/21 01:35:11;;;;;;;40.53;25.42;;;9.70;99.90;;;;;;5080213;28;20032;-35
2023/03/21 01:37:37;;;;;;;39.97;25.50;;;9.70;99.90;;;;;;5074518;28;20033;-35
2023/03/21 01:40:03;;;;;;;40.33;25.30;;;9.70;99.90;;;;;;5084710;28;20043;-34
2023/03/21 01:42:30;;;;;;;39.30;24.17;;;9.70;99.90;;;;;;5073186;28;20036;-34
2023/03/21 01:44:56;;;;;;;39.55;23.77;;;9.70;99.90;;;;;;5071482;28;20594;-35
2023/03/21 01:47:22;;;;;;;35.10;22.85;;;9.70;99.90;;;;;;5064934;28;20045;-35
2023/03/21 01:49:51;;;;;;;36.50;23.30;;;9.70;99.90;;;;;;5081292;28;20493;-34
2023/03/21 01:52:24;;;;;;;34.90;21.45;;;9.70;99.90;;;;;;5068951;28;20033;-34
2023/03/21 01:54:51;;;;;;;35.88;21.55;;;9.80;99.90;;;;;;5072949;28;20029;-34
2023/03/21 01:57:31;;;;;;;37.95;23.60;;;9.80;99.90;;;;;;5058782;28;20037;-35
2023/03/21 02:00:04;;;;;;;36.80;22.35;;;9.80;99.90;;;;;;5073215;28;20553;-35
2023/03/21 02:02:30;;;;;;;34.88;21.77;;;9.70;99.90;;;;;;5063936;28;20301;-34
2023/03/21 02:04:57;;;;;;;33.58;22.60;;;9.70;99.90;;;;;;5065878;28;20051;-34
2023/03/21 02:07:30;;;;;;;33.75;22.13;;;9.80;99.90;;;;;;5066404;28;20037;-34
2023/03/21 02:09:57;;;;;;;38.90;23.50;;;9.70;99.90;;;;;;5057133;28;20375;-35
2023/03/21 02:12:24;;;;;;;36.35;22.10;;;9.80;99.90;;;;;;5047118;28;20049;-35
2023/03/21 02:14:52;;;;;;;35.85;22.70;;;9.80;99.90;;;;;;5062648;28;20033;-34
2023/03/21 02:17:23;;;;;;;37.40;23.58;;;9.70;99.90;;;;;;5052753;28;20106;-34
2023/03/21 02:20:14;;;;;;;37.08;24.35;;;9.80;99.90;;;;;;5066932;28;20032;-34
2023/03/21 02:22:58;;;;;;;32.90;21.70;;;9.70;99.90;;;;;;5052569;28;20033;-34
2023/03/21 02:25:42;;;;;;;32.53;21.05;;;9.80;99.90;;;;;;5052253;28;20036;-34
2023/03/21 02:28:29;;;;;;;35.42;21.90;;;9.70;99.90;;;;;;5068201;28;20043;-34
2023/03/21 02:31:03;;;;;;;33.53;21.65;;;9.70;99.90;;;;;;5075820;28;20052;-34
2023/03/21 02:33:38;;;;;;;33.15;20.70;;;9.70;99.90;;;;;;5062448;28;20051;-34
2023/03/21 02:36:24;;;;;;;32.67;19.60;;;9.70;99.90;;;;;;5072237;28;20049;-35
2023/03/21 02:39:06;;;;;;;30.17;20.95;;;9.70;99.90;;;;;;5072557;28;20071;-34
2023/03/21 02:41:47;;;;;;;34.38;20.52;;;9.70;99.90;;;;;;5072099;28;20047;-34
2023/03/21 02:44:21;;;;;;;31.90;20.58;;;9.80;99.90;;;;;;5059947;28;20037;-35
2023/03/21 02:46:58;;;;;;;32.25;21.05;;;9.70;99.90;;;;;;5078291;28;20040;-34
2023/03/21 02:49:40;;;;;;;33.38;21.77;;;9.70;99.90;;;;;;5064771;28;20507;-35
2023/03/21 02:52:07;;;;;;;32.40;20.40;;;9.70;99.90;;;;;;5063783;28;20383;-34
2023/03/21 02:54:34;;;;;;;33.70;20.83;;;9.70;99.90;;;;;;5078446;28;20042;-34
2023/03/21 02:57:03;;;;;;;27.45;19.02;;;9.70;99.90;;;;;;5072045;28;20040;-34
2023/03/21 02:59:32;;;;;;;28.40;18.73;;;9.70;99.90;;;;;;5075608;28;20040;-35
2023/03/21 03:02:01;;;;;;;28.02;19.10;;;9.70;99.90;;;;;;5076253;28;20033;-34
2023/03/21 03:04:27;;;;;;;26.95;18.33;;;9.70;99.90;;;;;;5052199;28;20436;-35
2023/03/21 03:07:02;;;;;;;26.33;18.27;;;9.70;99.90;;;;;;5051580;28;20053;-35
2023/03/21 03:09:53;;;;;;;27.80;18.88;;;9.70;99.90;;;;;;5057741;28;20531;-34
2023/03/21 03:12:24;;;;;;;27.77;18.40;;;9.70;99.90;;;;;;5056577;28;20096;-34
2023/03/21 03:15:08;;;;;;;30.65;19.92;;;9.70;99.90;;;;;;5051944;28;20128;-34
2023/03/21 03:17:49;;;;;;;28.42;19.42;;;9.70;99.90;;;;;;5066446;28;20040;-34
2023/03/21 03:20:24;;;;;;;28.20;19.08;;;9.70;99.90;;;;;;5074636;28;20033;-35
2023/03/21 03:22:56;;;;;;;28.58;19.42;;;9.60;99.90;;;;;;5059488;28;20029;-35
2023/03/21 03:25:38;;;;;;;29.42;19.92;;;9.70;99.90;;;;;;5072130;28;20047;-34
2023/03/21 03:28:05;;;;;;;25.25;17.98;;;9.60;99.90;;;;;;5057995;28;20041;-35
2023/03/21 03:30:31;;;;;;;28.65;19.50;;;9.60;99.90;;;;;;5069961;28;20472;-34
2023/03/21 03:33:01;;;;;;;26.40;18.85;;;9.60;99.90;;;;;;5060297;28;20510;-34
2023/03/21 03:35:28;;;;;;;27.27;18.88;;;9.60;99.90;;;;;;5052863;28;20441;-34
2023/03/21 03:37:57;;;;;;;30.55;20.33;;;9.70;99.90;;;;;;5069407;28;20076;-35
2023/03/21 03:40:39;;;;;;;29.20;20.23;;;9.70;99.90;;;;;;5078321;28;20032;-35
2023/03/21 03:43:19;;;;;;;26.80;19.30;;;9.60;99.90;;;;;;5060248;28;20094;-34
2023/03/21 03:45:53;;;;;;;28.02;18.85;;;9.70;99.90;;;;;;5070956;28;20124;-35
2023/03/21 03:48:31;;;;;;;28.15;19.67;;;9.70;99.90;;;;;;5071144;28;20078;-35
2023/03/21 03:51:06;;;;;;;29.85;19.40;;;9.60;99.90;;;;;;5072202;28;20063;-34
2023/03/21 03:53:49;;;;;;;28.88;20.08;;;9.60;99.90;;;;;;5072929;28;20089;-34
2023/03/21 03:56:15;;;;;;;25.73;19.48;;;9.60;99.90;;;;;;5064747;28;20446;-35
2023/03/21 03:58:41;;;;;;;28.85;20.77;;;9.70;99.90;;;;;;5058316;28;20076;-35
2023/03/21 04:01:07;;;;;;;32.30;22.05;;;9.70;99.90;;;;;;5050775;28;20075;-35
2023/03/21 04:03:39;;;;;;;31.58;21.20;;;9.60;99.90;;;;;;5050889;28;20056;-35
2023/03/21 04:06:05;;;;;;;33.90;21.90;;;9.60;99.90;;;;;;5070227;28;20078;-34
2023/03/21 04:08:30;;;;;;;31.80;19.83;;;9.60;99.90;;;;;;5070853;28;20106;-34
2023/03/21 04:10:56;;;;;;;33.40;22.58;;;9.60;99.90;;;;;;5057505;28;20116;-35
2023/03/21 04:13:23;;;;;;;29.23;21.02;;;9.60;99.90;;;;;;5057618;28;20457;-35
2023/03/21 04:15:49;;;;;;;35.85;22.92;;;9.60;99.90;;;;;;5063191;28;20067;-36
2023/03/21 04:18:15;;;;;;;31.52;21.05;;;9.60;99.90;;;;;;5059778;28;20071;-35
2023/03/21 04:20:42;;;;;;;32.85;21.58;;;9.60;99.90;;;;;;5068875;28;20121;-35
2023/03/21 04:23:08;;;;;;;32.60;21.80;;;9.60;99.90;;;;;;5054807;28;20037;-34
2023/03/21 04:25:34;;;;;;;33.30;21.73;;;9.60;99.90;;;;;;5070615;28;20401;-35
2023/03/21 04:28:00;;;;;;;35.97;22.08;;;9.60;99.90;;;;;;5080998;28;20039;-34
2023/03/21 04:30:26;;;;;;;34.13;22.85;;;9.60;99.90;;;;;;5074713;28;20054;-35
2023/03/21 04:32:55;;;;;;;36.33;24.05;;;9.70;99.90;;;;;;5071456;28;20048;-35
2023/03/21 04:35:22;;;;;;;37.78;24.27;;;9.60;99.90;;;;;;5073241;28;20043;-34
2023/03/21 04:37:48;;;;;;;37.90;24.00;;;9.60;99.90;;;;;;5054892;28;20033;-35
2023/03/21 04:40:17;;;;;;;44.35;26.08;;;9.60;99.90;;;;;;5061411;28;20112;-35
2023/03/21 04:42:44;;;;;;;37.30;24.27;;;9.60;99.90;;;;;;5068315;28;20066;-35
2023/03/21 04:45:10;;;;;;;38.30;25.33;;;9.60;99.90;;;;;;5080743;28;20138;-35
2023/03/21 04:47:36;;;;;;;37.85;25.30;;;9.60;99.90;;;;;;5068852;28;20127;-34
2023/03/21 04:50:03;;;;;;;41.88;25.75;;;9.50;99.90;;;;;;5066333;28;20114;-35
2023/03/21 04:52:28;;;;;;;41.38;26.10;;;9.60;99.90;;;;;;5081156;28;20036;-35
2023/03/21 04:54:54;;;;;;;38.05;25.13;;;9.50;99.90;;;;;;5068120;28;20041;-35
2023/03/21 04:57:20;;;;;;;47.47;27.55;;;9.60;99.90;;;;;;5072030;28;20402;-35
2023/03/21 04:59:45;;;;;;;46.03;27.85;;;9.50;99.90;;;;;;5056242;28;20048;-35
2023/03/21 05:02:12;;;;;;;40.53;26.88;;;9.60;99.90;;;;;;5073887;28;20045;-34
2023/03/21 05:04:37;;;;;;;42.97;28.15;;;9.50;99.90;;;;;;5073968;28;20032;-35
2023/03/21 05:07:03;;;;;;;42.97;28.00;;;9.60;99.90;;;;;;5061334;28;20502;-35
2023/03/21 05:09:29;;;;;;;49.55;28.63;;;9.50;99.90;;;;;;5066542;28;20044;-34
2023/03/21 05:11:55;;;;;;;41.90;27.45;;;9.60;99.90;;;;;;5072675;28;20036;-35
2023/03/21 05:14:24;;;;;;;42.47;27.38;;;9.50;99.90;;;;;;5065100;28;20037;-35
2023/03/21 05:16:55;;;;;;;44.90;28.60;;;9.60;99.90;;;;;;5070330;28;20028;-34
2023/03/21 05:19:39;;;;;;;44.53;27.17;;;9.50;99.90;;;;;;5074533;28;20114;-34
2023/03/21 05:22:07;;;;;;;45.97;27.95;;;9.60;99.90;;;;;;5076680;28;20094;-35
2023/03/21 05:24:36;;;;;;;40.95;27.35;;;9.60;99.90;;;;;;5067868;28;20041;-34
2023/03/21 05:27:02;;;;;;;50.55;29.45;;;9.60;99.90;;;;;;5065758;28;20123;-35
2023/03/21 05:29:30;;;;;;;41.58;26.20;;;9.60;99.90;;;;;;5067164;28;20047;-35
2023/03/21 05:31:57;;;;;;;42.78;27.17;;;9.60;99.90;;;;;;5061296;28;20087;-35
2023/03/21 05:34:24;;;;;;;50.22;29.25;;;9.50;99.90;;;;;;5062603;28;20032;-35
2023/03/21 05:36:50;;;;;;;44.17;27.58;;;9.60;99.90;;;;;;5071649;28;20518;-35
2023/03/21 05:39:16;;;;;;;42.45;27.40;;;9.50;99.90;;;;;;5065769;28;20044;-35
2023/03/21 05:41:41;;;;;;;48.35;28.45;;;9.50;99.90;;;;;;5062629;28;20051;-35
2023/03/21 05:44:07;;;;;;;42.47;26.90;;;9.50;99.90;;;;;;5064198;28;20067;-35
2023/03/21 05:46:33;;;;;;;46.65;27.48;;;9.50;99.90;;;;;;5064819;28;20409;-36
2023/03/21 05:48:58;;;;;;;45.10;29.48;;;9.50;99.90;;;;;;5075795;28;20033;-36
2023/03/21 05:51:24;;;;;;;47.85;29.20;;;9.50;99.90;;;;;;5080278;28;20028;-36
2023/03/21 05:53:50;;;;;;;44.63;27.33;;;9.50;99.90;;;;;;5068985;28;20032;-36
2023/03/21 05:56:16;;;;;;;43.35;27.88;;;8.70;99.90;;;;;;5080235;28;20032;-36
2023/03/21 05:58:42;;;;;;;49.17;30.05;;;9.50;99.90;;;;;;5077608;28;20034;-35
2023/03/21 06:01:08;;;;;;;46.63;28.73;;;9.50;99.90;;;;;;5067093;28;20036;-36
2023/03/21 06:03:34;;;;;;;50.38;30.75;;;9.50;99.90;;;;;;5066577;28;20041;-36
2023/03/21 06:06:02;;;;;;;42.63;27.55;;;9.50;99.90;;;;;;5079368;28;20040;-38
2023/03/21 06:08:28;;;;;;;44.17;28.15;;;9.60;99.90;;;;;;5085580;28;20035;-35
2023/03/21 06:10:54;;;;;;;45.35;28.90;;;9.50;99.90;;;;;;5071327;28;20394;-35
2023/03/21 06:13:20;;;;;;;44.92;28.80;;;9.50;99.90;;;;;;5071965;28;20174;-35
2023/03/21 06:15:46;;;;;;;42.50;27.45;;;9.50;99.90;;;;;;5071653;28;20041;-37
2023/03/21 06:18:12;;;;;;;46.53;27.38;;;9.50;99.90;;;;;;5062107;28;20095;-38
2023/03/21 06:20:38;;;;;;;45.22;28.48;;;9.50;99.90;;;;;;5077437;28;20031;-37
2023/03/21 06:23:04;;;;;;;48.50;28.13;;;9.60;99.90;;;;;;5075000;28;20039;-37
2023/03/21 06:25:29;;;;;;;38.67;26.75;;;9.60;99.90;;;;;;5075650;28;20074;-35
2023/03/21 06:27:55;;;;;;;40.63;25.55;;;9.60;99.90;;;;;;5075357;28;20123;-36
2023/03/21 06:30:21;;;;;;;38.95;26.20;;;9.60;99.90;;;;;;5070817;28;20496;-36
2023/03/21 06:32:46;;;;;;;39.63;24.98;;;9.60;99.90;;;;;;5073386;28;20105;-36
2023/03/21 06:35:12;;;;;;;39.85;24.88;;;9.60;99.90;;;;;;5066731;28;20072;-36
2023/03/21 06:37:38;;;;;;;34.55;22.55;;;9.60;99.90;;;;;;5075995;28;20032;-36
2023/03/21 06:40:04;;;;;;;34.28;22.40;;;9.60;99.90;;;;;;5063544;28;20454;-36
2023/03/21 06:42:31;;;;;;;37.35;23.00;;;9.60;99.90;;;;;;5068049;28;20428;-36
2023/03/21 06:44:57;;;;;;;33.00;19.83;;;9.70;99.90;;;;;;5079259;28;20493;-36
2023/03/21 06:47:23;;;;;;;29.83;20.13;;;9.60;99.90;;;;;;5071762;28;20047;-36
2023/03/21 06:49:48;;;;;;;29.67;19.73;;;9.70;99.90;;;;;;5066257;28;20033;-36
2023/03/21 06:52:14;;;;;;;27.88;19.02;;;9.70;99.90;;;;;;5076670;28;20039;-36
2023/03/21 06:54:40;;;;;;;30.45;18.45;;;9.70;99.90;;;;;;5073713;28;20033;-36
2023/03/21 06:57:05;;;;;;;28.63;18.17;;;9.70;99.90;;;;;;5072366;28;20041;-36
2023/03/21 06:59:31;;;;;;;30.15;19.02;;;9.70;99.90;;;;;;5074140;28;20066;-36
2023/03/21 07:01:57;;;;;;;26.33;17.30;;;9.70;99.90;;;;;;5068500;28;20037;-36
2023/03/21 07:04:23;;;;;;;24.05;17.73;;;9.70;99.90;;;;;;5070646;28;20037;-36
2023/03/21 07:06:49;;;;;;;26.33;17.83;;;9.70;99.90;;;;;;5062718;28;20029;-36
2023/03/21 07:09:16;;;;;;;26.90;17.83;;;9.70;99.90;;;;;;5073592;28;20037;-36
2023/03/21 07:11:42;;;;;;;27.75;18.48;;;9.70;99.90;;;;;;5062161;28;20512;-36
2023/03/21 07:14:08;;;;;;;25.55;17.48;;;9.80;99.90;;;;;;5064396;28;20037;-36
2023/03/21 07:16:33;;;;;;;27.45;17.75;;;9.80;99.90;;;;;;5067625;28;20045;-36
2023/03/21 07:18:59;;;;;;;25.33;17.58;;;9.80;99.90;;;;;;5063581;28;20033;-36
2023/03/21 07:21:25;;;;;;;27.17;18.40;;;9.70;99.90;;;;;;5066327;28;20029;-36
2023/03/21 07:23:52;;;;;;;27.98;19.10;;;9.80;99.90;;;;;;5063567;28;20037;-36
2023/03/21 07:26:18;;;;;;;26.67;18.10;;;9.70;99.90;;;;;;5060475;28;20076;-36
2023/03/21 07:28:44;;;;;;;28.83;19.77;;;9.70;99.90;;;;;;5080725;28;20070;-36
2023/03/21 07:31:15;;;;;;;27.52;18.55;;;9.70;99.90;;;;;;5069267;28;20045;-36
2023/03/21 07:33:41;;;;;;;27.00;18.23;;;9.70;99.90;;;;;;5073787;28;20478;-36
2023/03/21 07:36:11;;;;;;;28.17;18.90;;;9.70;99.90;;;;;;5066570;28;20041;-36
2023/03/21 07:38:37;;;;;;;29.33;18.38;;;9.70;99.90;;;;;;5061566;28;20028;-37
2023/03/21 07:41:03;;;;;;;27.27;18.38;;;9.70;99.90;;;;;;5070227;28;20037;-36
2023/03/21 07:43:29;;;;;;;27.45;18.58;;;9.60;99.90;;;;;;5068246;28;20043;-36
2023/03/21 07:45:58;;;;;;;28.15;18.83;;;9.60;99.90;;;;;;5061411;28;20041;-36
2023/03/21 07:48:24;;;;;;;25.30;18.40;;;9.60;99.90;;;;;;5058329;28;20043;-36
2023/03/21 07:50:50;;;;;;;28.98;18.83;;;9.70;99.90;;;;;;5071599;28;20397;-36
2023/03/21 07:53:16;;;;;;;28.73;18.55;;;9.70;99.90;;;;;;5063136;28;20040;-36
2023/03/21 07:55:42;;;;;;;26.35;18.55;;;9.70;99.90;;;;;;5073681;28;20032;-36
2023/03/21 07:58:07;;;;;;;34.17;18.65;;;9.70;99.90;;;;;;5063563;28;20063;-36
2023/03/21 08:00:33;;;;;;;28.88;18.88;;;9.70;99.90;;;;;;5065184;28;20123;-36
2023/03/21 08:02:59;;;;;;;26.75;18.17;;;9.60;99.90;;;;;;5065241;28;20120;-36
2023/03/21 08:05:27;;;;;;;28.50;18.15;;;9.70;99.90;;;;;;5069832;28;20574;-36
2023/03/21 08:07:53;;;;;;;29.17;17.95;;;9.60;99.90;;;;;;5054117;28;20086;-36
2023/03/21 08:10:19;;;;;;;24.25;17.13;;;9.70;99.90;;;;;;5066049;28;20553;-36
2023/03/21 08:12:45;;;;;;;28.67;18.42;;;9.70;99.90;;;;;;5066957;28;20394;-36
2023/03/21 08:15:12;;;;;;;24.10;16.17;;;9.70;99.90;;;;;;5067070;28;20035;-36
2023/03/21 08:17:39;;;;;;;24.73;18.58;;;9.80;99.90;;;;;;5068271;28;20037;-36
2023/03/21 08:20:07;;;;;;;29.48;18.13;;;9.80;99.90;;;;;;5066568;28;20449;-36
2023/03/21 08:22:34;;;;;;;26.10;17.02;;;9.80;99.90;;;;;;5074779;28;20059;-36
2023/03/21 08:25:00;;;;;;;27.27;18.23;;;9.80;99.90;;;;;;5076293;28;20037;-36
2023/03/21 08:27:26;;;;;;;28.25;18.05;;;9.80;99.90;;;;;;5076050;28;20042;-36
2023/03/21 08:29:52;;;;;;;23.38;17.20;;;9.80;99.90;;;;;;5073167;28;20406;-36
2023/03/21 08:32:18;;;;;;;25.25;17.02;;;9.90;99.90;;;;;;5057183;28;20076;-36
2023/03/21 08:34:44;;;;;;;24.17;17.38;;;9.90;99.90;;;;;;5063443;28;20036;-36
2023/03/21 08:37:10;;;;;;;24.98;17.75;;;9.90;99.90;;;;;;5070733;28;20402;-36
2023/03/21 08:39:35;;;;;;;23.30;17.52;;;9.90;99.90;;;;;;5060825;28;20068;-36
2023/03/21 08:42:01;;;;;;;27.92;18.13;;;9.90;99.90;;;;;;5051170;28;20037;-36
2023/03/21 08:44:27;;;;;;;27.48;17.60;;;9.90;99.90;;;;;;5071215;28;20056;-36
2023/03/21 08:46:53;;;;;;;26.35;18.17;;;10.00;99.90;;;;;;5061817;28;20491;-36
2023/03/21 08:49:18;;;;;;;29.23;18.67;;;10.00;99.90;;;;;;5060253;28;20386;-36
2023/03/21 08:51:44;;;;;;;29.33;16.95;;;10.00;99.90;;;;;;5054845;28;20068;-36
2023/03/21 08:54:19;;;;;;;28.73;17.67;;;10.10;99.90;;;;;;5066633;28;20564;-36
2023/03/21 08:56:44;;;;;;;25.67;17.27;;;10.00;99.90;;;;;;5061972;28;20091;-36
2023/03/21 08:59:10;;;;;;;27.60;17.38;;;10.10;99.90;;;;;;5065433;28;20037;-36
2023/03/21 09:01:36;;;;;;;25.35;17.40;;;10.10;99.90;;;;;;5068366;28;20098;-36
2023/03/21 09:04:03;;;;;;;27.65;16.15;;;10.10;99.90;;;;;;5051998;28;20075;-36
2023/03/21 09:06:29;;;;;;;27.08;17.17;;;10.10;99.90;;;;;;5076256;28;20072;-36
2023/03/21 09:08:55;;;;;;;27.10;17.73;;;10.10;99.90;;;;;;5063127;28;20568;-36
2023/03/21 09:11:21;;;;;;;27.08;17.70;;;10.10;99.90;;;;;;5053012;28;20028;-37
2023/03/21 09:13:47;;;;;;;26.25;18.73;;;10.10;99.90;;;;;;5064469;28;20041;-36
2023/03/21 09:16:13;;;;;;;34.00;17.98;;;10.20;99.90;;;;;;5070844;28;20040;-36
2023/03/21 09:18:45;;;;;;;24.63;18.38;;;10.10;99.90;;;;;;5071412;28;20036;-36
2023/03/21 09:21:14;;;;;;;28.17;17.67;;;10.10;99.90;;;;;;5063843;28;20043;-36
2023/03/21 09:23:41;;;;;;;28.17;18.15;;;10.10;99.90;;;;;;5073635;28;20034;-36
2023/03/21 09:26:08;;;;;;;28.75;18.73;;;10.10;99.90;;;;;;5071318;28;20059;-36
2023/03/21 09:28:35;;;;;;;34.30;18.65;;;10.10;99.90;;;;;;5058212;28;20084;-36
2023/03/21 09:31:04;;;;;;;24.92;17.45;;;10.20;99.90;;;;;;5060814;28;20120;-36
2023/03/21 09:33:30;;;;;;;30.50;17.70;;;10.20;99.90;;;;;;5058061;28;20087;-36
2023/03/21 09:35:59;;;;;;;27.70;17.08;;;10.20;99.90;;;;;;5057121;28;20454;-36
2023/03/21 09:38:29;;;;;;;29.25;18.25;;;10.20;99.90;;;;;;5066167;28;20051;-36
2023/03/21 09:40:58;;;;;;;27.08;17.63;;;10.40;99.90;;;;;;5073276;28;20037;-36
2023/03/21 09:43:34;;;;;;;29.02;16.73;;;10.30;99.90;;;;;;5064281;28;20032;-36
2023/03/21 09:46:05;;;;;;;26.42;16.33;;;10.50;99.90;;;;;;5060129;28;20044;-36
2023/03/21 09:48:44;;;;;;;28.15;17.08;;;10.40;99.90;;;;;;5073232;28;20394;-36
2023/03/21 09:51:14;;;;;;;31.00;18.52;;;10.50;99.90;;;;;;5072434;28;20048;-36
2023/03/21 09:53:43;;;;;;;23.60;16.77;;;10.60;99.90;;;;;;5077169;28;20044;-36
2023/03/21 09:56:13;;;;;;;28.95;17.73;;;10.50;99.90;;;;;;5068212;28;20040;-36
2023/03/21 09:58:51;;;;;;;24.42;16.67;;;10.50;99.90;;;;;;5069791;28;20044;-36
2023/03/21 10:01:40;;;;;;;25.42;17.27;;;10.60;99.90;;;;;;5062768;28;20051;-36
2023/03/21 10:04:10;;;;;;;25.73;16.65;;;10.50;99.90;;;;;;5070901;28;20032;-36
2023/03/21 10:06:40;;;;;;;23.10;16.67;;;10.50;99.90;;;;;;5066713;28;20170;-36
2023/03/21 10:09:22;;;;;;;32.50;18.83;;;10.60;99.90;;;;;;5079072;28;20044;-36
2023/03/21 10:11:56;;;;;;;23.52;17.05;;;10.60;99.90;;;;;;5068348;28;20028;-36
2023/03/21 10:14:27;;;;;;;25.13;16.95;;;10.60;99.90;;;;;;5070725;28;20482;-36
2023/03/21 10:17:18;;;;;;;23.42;16.52;;;10.70;99.90;;;;;;5074152;28;20044;-36
2023/03/21 10:19:49;;;;;;;24.60;16.52;;;10.60;99.90;;;;;;5067608;28;20078;-36
2023/03/21 10:22:14;;;;;;;23.67;16.13;;;10.60;99.90;;;;;;5076690;28;20158;-36
2023/03/21 10:24:40;;;;;;;23.83;16.45;;;10.60;99.90;;;;;;5079287;28;20491;-36
2023/03/21 10:27:06;;;;;;;23.73;15.98;;;10.70;99.90;;;;;;5066618;28;20041;-34
2023/03/21 10:29:41;;;;;;;25.70;16.23;;;10.60;99.90;;;;;;5075225;28;20039;-35
2023/03/21 10:32:12;;;;;;;22.92;16.23;;;10.80;99.90;;;;;;5061157;28;20098;-34
2023/03/21 10:34:45;;;;;;;24.38;15.98;;;10.70;99.90;;;;;;5062949;28;20129;-35
2023/03/21 10:37:12;;;;;;;24.33;15.97;;;10.80;99.90;;;;;;5062430;28;20146;-35
2023/03/21 10:39:47;;;;;;;24.65;16.40;;;10.70;99.90;;;;;;5073488;28;20276;-34
2023/03/21 10:42:31;;;;;;;25.40;16.58;;;10.70;99.90;;;;;;5068719;28;20029;-34
2023/03/21 10:44:57;;;;;;;23.80;16.50;;;10.70;99.90;;;;;;5065567;28;20041;-35
2023/03/21 10:47:32;;;;;;;26.48;16.17;;;10.70;99.90;;;;;;5079168;28;20401;-34
2023/03/21 10:50:06;;;;;;;24.20;16.83;;;10.80;99.90;;;;;;5069631;28;20041;-35
2023/03/21 10:52:33;;;;;;;22.42;16.25;;;10.70;99.90;;;;;;5069349;28;20043;-35
2023/03/21 10:55:16;;;;;;;23.67;16.17;;;10.70;99.90;;;;;;5076754;28;20032;-35
2023/03/21 10:57:42;;;;;;;28.70;17.58;;;10.70;99.90;;;;;;5077258;28;20036;-35
2023/03/21 11:00:18;;;;;;;27.20;19.50;;;10.70;99.90;;;;;;5084215;28;20036;-35
2023/03/21 11:02:48;;;;;;;24.80;17.10;;;10.60;99.90;;;;;;5064199;28;20025;-35
2023/03/21 11:05:24;;;;;;;23.48;18.08;;;10.70;99.90;;;;;;5063007;28;20029;-35
2023/03/21 11:08:18;;;;;;;24.70;15.65;;;10.90;99.90;;;;;;5071853;28;20421;-35
2023/03/21 11:10:53;;;;;;;25.60;16.30;;;10.90;99.90;;;;;;5060047;28;20041;-34
2023/03/21 11:13:32;;;;;;;25.77;16.42;;;10.90;99.90;;;;;;5073600;28;20154;-35
2023/03/21 11:16:06;;;;;;;23.33;15.80;;;11.00;99.90;;;;;;5077112;28;20039;-35
2023/03/21 11:18:32;;;;;;;25.00;15.32;;;11.10;99.90;;;;;;5076914;28;20516;-35
2023/03/21 11:21:06;;;;;;;18.20;14.60;;;11.30;99.90;;;;;;5081811;28;20036;-35
2023/03/21 11:23:36;;;;;;;18.42;13.43;;;11.40;99.90;;;;;;5076774;28;20181;-35
2023/03/21 11:26:07;;;;;;;20.15;12.32;;;11.40;99.90;;;;;;5074548;28;20044;-35
2023/03/21 11:28:38;;;;;;;18.48;11.63;;;11.40;99.90;;;;;;5056693;28;20506;-35
2023/03/21 11:31:05;;;;;;;20.52;11.82;;;11.50;99.90;;;;;;5072086;28;20549;-35
2023/03/21 11:33:58;;;;;;;19.40;12.63;;;11.70;99.90;;;;;;5072036;28;20443;-35
2023/03/21 11:36:32;;;;;;;19.17;12.27;;;11.70;99.90;;;;;;5072467;28;20047;-35
2023/03/21 11:39:12;;;;;;;14.45;10.57;;;11.90;99.90;;;;;;5073962;28;20056;-35
2023/03/21 11:41:40;;;;;;;11.13;9.00;;;12.00;99.90;;;;;;5058442;28;20123;-35
2023/03/21 11:44:23;;;;;;;13.13;9.45;;;11.90;99.90;;;;;;5073701;28;20046;-35
2023/03/21 11:46:49;;;;;;;12.43;9.60;;;12.00;99.90;;;;;;5054924;28;20040;-35
2023/03/21 11:49:14;;;;;;;15.75;8.57;;;12.10;99.90;;;;;;5064450;28;20040;-35
2023/03/21 11:52:01;;;;;;;11.90;8.63;;;12.00;99.90;;;;;;5058761;28;20445;-35
2023/03/21 11:54:33;;;;;;;16.35;8.98;;;12.00;99.90;;;;;;5057222;28;20043;-36
2023/03/21 11:57:21;;;;;;;11.02;7.82;;;12.10;99.90;;;;;;5078993;28;20053;-35
2023/03/21 12:00:13;;;;;;;10.77;7.95;;;12.30;99.90;;;;;;5080855;28;20075;-34
2023/03/21 12:03:03;;;;;;;12.60;8.75;;;12.20;99.90;;;;;;5064290;28;20071;-35
2023/03/21 12:05:36;;;;;;;13.90;9.35;;;12.30;99.90;;;;;;5070378;28;20050;-35
2023/03/21 12:08:18;;;;;;;11.20;9.40;;;12.30;99.90;;;;;;5082068;28;20044;-35
2023/03/21 12:10:46;;;;;;;11.95;9.07;;;12.50;99.90;;;;;;5075578;28;20040;-34
2023/03/21 12:13:27;;;;;;;12.02;8.60;;;12.50;99.90;;;;;;5070167;28;20110;-35
2023/03/21 12:15:57;;;;;;;13.65;7.95;;;12.60;99.90;;;;;;5068834;28;20033;-35
2023/03/21 12:18:25;;;;;;;11.98;8.77;;;12.70;99.90;;;;;;5069935;28;20064;-34
2023/03/21 12:21:17;;;;;;;16.98;8.75;;;12.60;99.90;;;;;;5073638;28;20097;-35
2023/03/21 12:23:57;;;;;;;11.63;8.90;;;12.60;99.90;;;;;;5067514;28;20689;-36
2023/03/21 12:26:27;;;;;;;12.73;8.43;;;12.70;99.90;;;;;;5063074;28;20032;-35
2023/03/21 12:29:00;;;;;;;11.65;8.18;;;12.70;99.90;;;;;;5070185;28;20067;-35
2023/03/21 12:31:55;;;;;;;11.43;8.23;;;12.60;99.90;;;;;;5065952;28;20066;-35
2023/03/21 12:34:36;;;;;;;12.90;8.07;;;12.70;99.90;;;;;;5054502;28;20498;-37
2023/03/21 12:37:07;;;;;;;10.70;7.15;;;12.80;99.90;;;;;;5063172;28;20048;-35
2023/03/21 12:39:36;;;;;;;13.70;7.63;;;13.00;99.90;;;;;;5069164;28;20033;-35
2023/03/21 12:42:04;;;;;;;12.25;7.78;;;13.00;99.90;;;;;;5067643;28;20389;-36
2023/03/21 12:44:36;;;;;;;10.00;7.97;;;12.70;99.90;;;;;;5073047;28;20047;-35
2023/03/21 12:47:10;;;;;;;10.35;7.15;;;12.90;99.90;;;;;;5068114;28;20041;-35
2023/03/21 12:49:55;;;;;;;12.15;8.65;;;12.50;99.90;;;;;;5078615;28;20379;-35